Goshen, New Jersey
Current Conditions -  °F | °C
As of 8:35 PM on Monday 22 Dec 2014 (Local Time) from KWWD Reporting Station
Overcast Overcast  
Wind Chill: 38°   Ceiling: 7500
Heat Index: 45°   Visibility: 10mi
Dew Point: 39°   Wind: 15mph
Humidity: 81%   Direction: 50°NE
Pressure: 30.1"   Gusts: 20mph
Location:  39.14°N, 74.85°W
Report Text: KWWD 230135Z AUTO 05013G17KT 10SM OVC075 07/04 A3010 RMK AO1
Loading
Personal Weather Stations






























Interactive Weather Map New forecast layout! Learn more

10-Day Weather Forecast

Advertisements
Track Severe Weather on mobile